Time;durP1;ratioP1;P1;durP2;ratioP2;P2;SDS_P1;SDS_P2;PMS_P1;PMS_P2;Temp;Humidity;BMP_temperature;BMP_pressure;BME280_temperature;BME280_humidity;BME280_pressure;Samples;Min_cycle;Max_cycle;Signal;HPM_P1;HPM_P2
2022/05/22 00:00:33;;;;;;;1.17;1.07;;;14.20;69.60;13.60;98514.00;;;;5016882;28;20216;-76
2022/05/22 00:03:00;;;;;;;1.30;1.20;;;14.20;69.80;13.60;98513.00;;;;4999596;28;20292;-75
2022/05/22 00:05:27;;;;;;;0.57;0.57;;;14.20;69.30;13.80;98518.00;;;;5016752;28;20637;-75
2022/05/22 00:07:54;;;;;;;0.80;0.80;;;14.30;68.70;13.70;98512.00;;;;5016773;28;20201;-74
2022/05/22 00:10:21;;;;;;;0.80;0.80;;;14.20;68.10;13.60;98501.00;;;;5016629;28;20694;-75
2022/05/22 00:12:47;;;;;;;1.00;1.00;;;14.20;67.30;13.40;98508.00;;;;4999342;28;20616;-75
2022/05/22 00:15:16;;;;;;;0.70;0.70;;;14.10;68.10;13.40;98506.00;;;;4999257;28;20213;-75
2022/05/22 00:17:44;;;;;;;1.00;1.00;;;14.00;68.60;13.30;98505.00;;;;5016600;28;20217;-75
2022/05/22 00:20:14;;;;;;;0.60;0.60;;;13.90;68.80;13.40;98506.00;;;;5016712;28;20233;-74
2022/05/22 00:22:41;;;;;;;0.63;0.63;;;13.90;69.30;13.20;98501.00;;;;5016452;28;20220;-74
2022/05/22 00:25:10;;;;;;;1.37;0.93;;;13.90;69.40;13.10;98497.00;;;;5016405;28;20532;-74
2022/05/22 00:27:39;;;;;;;0.70;0.70;;;13.80;70.00;13.20;98489.00;;;;5016403;28;20252;-74
2022/05/22 00:30:07;;;;;;;0.77;0.77;;;13.80;70.10;13.30;98480.00;;;;5016448;28;20280;-74
2022/05/22 00:32:34;;;;;;;0.90;0.90;;;13.80;70.80;13.20;98493.00;;;;5016684;28;20209;-74
2022/05/22 00:35:01;;;;;;;0.80;0.80;;;13.80;70.70;13.20;98499.00;;;;5016428;28;20197;-74
2022/05/22 00:37:28;;;;;;;0.67;0.67;;;13.90;70.90;13.30;98492.00;;;;5016298;28;20310;-74
2022/05/22 00:39:56;;;;;;;0.90;0.90;;;13.80;70.80;13.20;98494.00;;;;5016254;28;20227;-74
2022/05/22 00:42:24;;;;;;;0.70;0.70;;;13.80;70.10;13.20;98483.00;;;;5016403;28;20213;-74
2022/05/22 00:44:53;;;;;;;0.60;0.60;;;13.80;70.30;13.20;98489.00;;;;5016138;28;20252;-74
2022/05/22 00:47:22;;;;;;;0.50;0.50;;;13.80;70.40;13.30;98488.00;;;;5016177;28;20200;-75
2022/05/22 00:49:53;;;;;;;0.70;0.70;;;13.80;70.00;13.20;98475.00;;;;5016154;28;20285;-74
2022/05/22 00:52:29;;;;;;;0.80;0.80;;;13.70;69.50;13.30;98453.00;;;;5015228;28;20255;-72
2022/05/22 00:55:04;;;;;;;0.93;0.93;;;13.80;69.60;13.30;98475.00;;;;4998946;28;20272;-74
2022/05/22 00:57:36;;;;;;;1.93;1.80;;;13.80;69.80;13.10;98474.00;;;;5015768;28;20235;-74
2022/05/22 01:00:08;;;;;;;1.43;1.33;;;13.70;69.90;13.10;98475.00;;;;5016069;28;20212;-74
2022/05/22 01:05:17;;;;;;;0.67;0.67;;;13.60;70.40;13.10;98462.00;;;;4997764;28;20229;-74
2022/05/22 01:07:46;;;;;;;0.80;0.80;;;13.60;69.90;12.90;98477.00;;;;4998588;28;20228;-75
2022/05/22 01:10:14;;;;;;;0.60;0.60;;;13.50;70.20;12.90;98473.00;;;;5015739;28;20202;-74
2022/05/22 01:12:43;;;;;;;0.70;0.70;;;13.60;70.50;13.00;98464.00;;;;5015786;28;20295;-74
2022/05/22 01:15:12;;;;;;;0.60;0.60;;;13.50;70.70;12.90;98457.00;;;;4998534;28;20576;-75
2022/05/22 01:17:41;;;;;;;0.70;0.70;;;13.50;70.60;12.70;98446.00;;;;5015613;28;20320;-72
2022/05/22 01:20:12;;;;;;;1.20;1.20;;;13.50;70.90;12.70;98449.00;;;;5015736;28;20644;-74
2022/05/22 01:22:41;;;;;;;1.53;1.43;;;13.40;71.20;12.80;98451.00;;;;5015737;28;20193;-74
2022/05/22 01:25:09;;;;;;;0.60;0.60;;;13.30;71.30;12.60;98459.00;;;;5015636;28;20295;-74
2022/05/22 01:27:37;;;;;;;1.03;1.03;;;13.30;70.90;12.50;98463.00;;;;5015733;28;20296;-74
2022/05/22 01:30:15;;;;;;;0.60;0.60;;;13.10;71.80;12.40;98463.00;;;;5015503;28;20259;-73
2022/05/22 01:32:46;;;;;;;0.60;0.60;;;13.10;72.00;12.60;98463.00;;;;5015598;28;20227;-75
2022/05/22 01:35:18;;;;;;;0.63;0.63;;;13.10;72.80;12.80;98474.00;;;;4998247;28;20212;-75
2022/05/22 01:37:48;;;;;;;0.63;0.63;;;13.20;71.80;12.60;98467.00;;;;5015427;28;20239;-74
2022/05/22 01:40:17;;;;;;;0.77;0.77;;;13.20;71.50;12.50;98462.00;;;;5015480;28;20221;-75
2022/05/22 01:42:44;;;;;;;0.67;0.67;;;13.10;72.30;12.50;98461.00;;;;5015418;28;20255;-75
2022/05/22 01:45:14;;;;;;;9.63;2.20;;;13.10;72.60;12.60;98472.00;;;;5015544;28;20735;-75
2022/05/22 01:47:43;;;;;;;0.60;0.60;;;13.10;72.40;12.40;98463.00;;;;5015862;28;20205;-75
2022/05/22 01:50:11;;;;;;;0.80;0.80;;;13.10;71.90;12.50;98458.00;;;;5015221;28;20337;-75
2022/05/22 01:52:38;;;;;;;0.80;0.80;;;13.10;71.50;12.60;98459.00;;;;5015219;28;20215;-75
2022/05/22 01:55:09;;;;;;;0.80;0.80;;;13.10;71.50;12.50;98461.00;;;;5015171;28;20198;-74
2022/05/22 01:57:36;;;;;;;0.60;0.60;;;13.10;71.60;12.50;98459.00;;;;5014934;28;20237;-75
2022/05/22 02:00:11;;;;;;;0.60;0.60;;;13.10;71.80;12.40;98440.00;;;;5015071;28;20292;-75
2022/05/22 02:02:38;;;;;;;0.77;0.77;;;13.00;72.40;12.30;98455.00;;;;5015190;28;20401;-75
2022/05/22 02:05:08;;;;;;;0.70;0.70;;;13.00;72.90;12.40;98447.00;;;;4997374;28;20205;-75
2022/05/22 02:10:20;;;;;;;1.20;1.10;;;12.90;72.90;12.30;98439.00;;;;5015282;28;20545;-75
2022/05/22 02:12:46;;;;;;;1.43;1.33;;;12.90;73.80;12.50;98442.00;;;;5014854;28;20280;-75
2022/05/22 02:15:13;;;;;;;0.83;0.83;;;13.00;73.30;12.50;98449.00;;;;5014843;28;20268;-75
2022/05/22 02:17:39;;;;;;;0.60;0.60;;;13.00;72.50;12.40;98436.00;;;;5014669;28;20312;-75
2022/05/22 02:20:08;;;;;;;0.57;0.57;;;13.00;71.40;12.30;98432.00;;;;5014784;28;20194;-73
2022/05/22 02:22:41;;;;;;;0.53;0.53;;;12.90;72.00;12.20;98434.00;;;;5014757;28;20185;-74
2022/05/22 02:25:09;;;;;;;0.87;0.87;;;12.90;72.50;12.20;98422.00;;;;5014835;28;20239;-74
2022/05/22 02:27:38;;;;;;;0.63;0.63;;;12.80;73.00;12.20;98415.00;;;;5014697;28;20293;-75
2022/05/22 02:30:08;;;;;;;0.70;0.70;;;12.80;73.50;12.30;98421.00;;;;5014667;28;20360;-75
2022/05/22 02:32:36;;;;;;;0.90;0.90;;;12.80;74.00;12.20;98424.00;;;;4997219;28;20197;-75
2022/05/22 02:35:05;;;;;;;1.00;1.00;;;12.80;73.70;12.20;98433.00;;;;5014550;28;20264;-75
2022/05/22 02:37:31;;;;;;;0.60;0.60;;;12.70;73.90;12.30;98429.00;;;;5014348;28;20244;-75
2022/05/22 02:39:58;;;;;;;1.13;0.93;;;12.80;74.20;12.20;98420.00;;;;5014504;28;20580;-74
2022/05/22 02:42:25;;;;;;;1.00;1.00;;;12.80;74.50;12.30;98422.00;;;;5014508;28;20511;-75
2022/05/22 02:44:52;;;;;;;2.00;1.20;;;12.80;74.60;12.30;98425.00;;;;5014390;28;20209;-75
2022/05/22 02:47:18;;;;;;;0.67;0.67;;;12.80;72.90;12.40;98414.00;;;;5014302;28;20197;-75
2022/05/22 02:49:47;;;;;;;2.13;1.20;;;12.90;72.50;12.40;98412.00;;;;5014470;28;20225;-75
2022/05/22 02:52:13;;;;;;;1.10;1.10;;;12.90;72.80;12.40;98413.00;;;;4997052;28;20213;-74
2022/05/22 02:54:40;;;;;;;0.60;0.60;;;12.90;72.50;12.30;98408.00;;;;5014415;28;20340;-75
2022/05/22 02:57:07;;;;;;;0.90;0.90;;;12.90;72.70;12.30;98400.00;;;;5014147;28;20225;-74
2022/05/22 02:59:34;;;;;;;1.10;1.10;;;12.90;73.30;12.20;98391.00;;;;5014390;28;20208;-75
2022/05/22 03:02:04;;;;;;;0.60;0.60;;;12.90;73.50;12.20;98404.00;;;;4996975;28;20209;-75
2022/05/22 03:04:32;;;;;;;0.70;0.70;;;12.80;73.60;12.30;98394.00;;;;5014072;28;20225;-75
2022/05/22 03:06:59;;;;;;;0.53;0.53;;;12.80;74.10;12.30;98389.00;;;;5014147;28;20197;-75
2022/05/22 03:09:27;;;;;;;0.60;0.60;;;12.80;73.20;12.30;98390.00;;;;5014062;28;20299;-75
2022/05/22 03:11:55;;;;;;;0.80;0.80;;;12.80;74.00;12.20;98392.00;;;;5014054;28;20803;-75
2022/05/22 03:14:21;;;;;;;0.60;0.60;;;12.80;74.30;12.10;98390.00;;;;5014064;28;20532;-75
2022/05/22 03:16:50;;;;;;;0.70;0.70;;;12.70;73.60;12.00;98380.00;;;;5013030;28;20243;-75
2022/05/22 03:19:17;;;;;;;0.97;0.97;;;12.70;74.40;12.10;98380.00;;;;5013945;28;20263;-75
2022/05/22 03:21:46;;;;;;;1.10;1.00;;;12.70;73.90;12.00;98374.00;;;;5013898;28;20528;-75
2022/05/22 03:24:13;;;;;;;2.07;1.00;;;12.60;74.70;12.00;98377.00;;;;5013794;28;20298;-75
2022/05/22 03:26:39;;;;;;;0.80;0.80;;;12.60;74.30;12.10;98377.00;;;;5013784;28;20214;-75
2022/05/22 03:29:08;;;;;;;1.43;1.33;;;12.60;73.90;12.00;98368.00;;;;5013844;28;20273;-75
2022/05/22 03:31:37;;;;;;;0.90;0.90;;;12.60;74.10;11.90;98365.00;;;;5013765;28;20637;-75
2022/05/22 03:34:07;;;;;;;0.60;0.60;;;12.60;74.20;11.90;98357.00;;;;5013709;28;20280;-73
2022/05/22 03:36:36;;;;;;;0.70;0.70;;;12.50;74.50;11.90;98370.00;;;;5013453;28;20239;-75
2022/05/22 03:39:02;;;;;;;0.80;0.80;;;12.50;74.40;12.00;98369.00;;;;4996462;28;20209;-75
2022/05/22 03:41:29;;;;;;;0.60;0.60;;;12.50;74.60;11.90;98367.00;;;;5013613;28;20568;-75
2022/05/22 03:43:55;;;;;;;0.97;0.97;;;12.50;74.60;11.90;98372.00;;;;5013553;28;20220;-75
2022/05/22 03:46:22;;;;;;;15.13;1.63;;;12.50;74.60;12.00;98384.00;;;;5013625;28;20595;-74
2022/05/22 03:48:48;;;;;;;1.10;1.10;;;12.60;73.60;12.00;98371.00;;;;5013534;28;20201;-75
2022/05/22 03:51:15;;;;;;;0.60;0.60;;;12.50;73.20;11.80;98376.00;;;;5013465;28;20225;-75
2022/05/22 03:53:44;;;;;;;0.70;0.70;;;12.50;73.20;11.80;98365.00;;;;5013521;28;20213;-74
2022/05/22 03:56:13;;;;;;;0.60;0.60;;;12.40;73.70;11.90;98360.00;;;;5013213;28;20217;-73
2022/05/22 03:58:39;;;;;;;0.60;0.60;;;12.40;74.10;11.80;98368.00;;;;4996259;28;20201;-75
2022/05/22 04:01:07;;;;;;;0.70;0.70;;;12.40;74.10;11.90;98346.00;;;;5013404;28;20684;-75
2022/05/22 04:03:34;;;;;;;0.70;0.70;;;12.40;74.30;12.00;98361.00;;;;4996042;28;20233;-75
2022/05/22 04:06:01;;;;;;;0.73;0.73;;;12.50;75.10;12.00;98347.00;;;;5013342;28;20197;-75
2022/05/22 04:08:28;;;;;;;1.00;1.00;;;12.50;73.90;12.00;98346.00;;;;5013313;28;20196;-75
2022/05/22 04:10:55;;;;;;;0.60;0.60;;;12.50;73.80;11.90;98352.00;;;;4995958;28;20226;-75
2022/05/22 04:13:22;;;;;;;0.73;0.73;;;12.50;73.80;12.00;98350.00;;;;5013356;28;20236;-75
2022/05/22 04:15:49;;;;;;;0.77;0.77;;;12.60;74.30;11.90;98351.00;;;;5013205;28;20315;-75
2022/05/22 04:18:15;;;;;;;0.60;0.60;;;12.50;73.70;11.90;98347.00;;;;5013292;28;20300;-74
2022/05/22 04:20:42;;;;;;;0.70;0.70;;;12.50;74.90;11.80;98350.00;;;;5013267;28;20213;-74
2022/05/22 04:26:03;;;;;;;0.90;0.90;;;12.40;75.70;11.90;98350.00;;;;4966847;28;20221;-75
2022/05/22 04:28:32;;;;;;;1.10;1.07;;;12.40;76.60;12.10;98334.00;;;;5014826;28;20300;-75
2022/05/22 04:30:59;;;;;;;0.70;0.70;;;12.50;76.30;11.90;98346.00;;;;5016461;28;20197;-75
2022/05/22 04:33:26;;;;;;;0.67;0.67;;;12.50;76.20;12.00;98335.00;;;;5016423;28;20280;-75
2022/05/22 04:35:53;;;;;;;1.43;1.33;;;12.50;77.00;11.90;98337.00;;;;5016395;28;20556;-75
2022/05/22 04:38:20;;;;;;;0.70;0.70;;;12.50;77.90;12.10;98335.00;;;;5015624;28;20518;-75
2022/05/22 04:40:55;;;;;;;0.80;0.80;;;12.60;79.20;12.10;98339.00;;;;5016327;28;20221;-75
2022/05/22 04:43:23;;;;;;;0.87;0.87;;;12.70;78.50;12.30;98347.00;;;;5016274;28;20220;-75
2022/05/22 04:45:50;;;;;;;0.83;0.83;;;12.80;78.50;12.20;98344.00;;;;5016196;28;20237;-75
2022/05/22 04:48:17;;;;;;;1.50;1.40;;;12.80;78.80;12.30;98347.00;;;;5016189;28;20629;-75
2022/05/22 04:50:47;;;;;;;0.87;0.87;;;12.90;79.20;12.30;98349.00;;;;5016078;28;20229;-74
2022/05/22 04:53:14;;;;;;;0.60;0.60;;;12.90;79.20;12.40;98339.00;;;;5016073;28;20221;-75
2022/05/22 04:55:41;;;;;;;0.63;0.63;;;12.90;78.50;12.40;98339.00;;;;5016011;28;20500;-75
2022/05/22 04:58:07;;;;;;;0.63;0.63;;;12.90;79.00;12.40;98333.00;;;;5016012;28;20237;-73
2022/05/22 05:00:35;;;;;;;0.60;0.60;;;13.00;79.20;12.50;98338.00;;;;5016010;28;20201;-75
2022/05/22 05:03:01;;;;;;;1.17;1.17;;;13.00;79.50;12.50;98340.00;;;;4998631;28;20237;-75
2022/05/22 05:05:30;;;;;;;0.70;0.70;;;13.10;79.30;12.60;98330.00;;;;5016014;28;20272;-75
2022/05/22 05:07:57;;;;;;;1.03;1.03;;;13.10;78.80;12.70;98334.00;;;;5015917;28;20197;-75
2022/05/22 05:10:24;;;;;;;0.93;0.93;;;13.20;78.00;12.80;98327.00;;;;4998422;28;20271;-74
2022/05/22 05:12:51;;;;;;;0.60;0.60;;;13.20;78.10;12.80;98323.00;;;;5015828;28;20213;-74
2022/05/22 05:15:21;;;;;;;0.80;0.80;;;13.30;78.10;12.90;98328.00;;;;4998504;28;20201;-74
2022/05/22 05:17:48;;;;;;;0.70;0.70;;;13.40;78.90;12.70;98323.00;;;;5015635;28;20233;-73
2022/05/22 05:20:18;;;;;;;0.80;0.80;;;13.40;79.40;12.90;98314.00;;;;5015684;28;20239;-74
2022/05/22 05:22:45;;;;;;;0.90;0.90;;;13.40;79.70;13.00;98318.00;;;;5015558;28;20217;-74
2022/05/22 05:25:15;;;;;;;0.60;0.60;;;13.50;80.40;13.00;98321.00;;;;4998325;28;20510;-75
2022/05/22 05:27:41;;;;;;;0.80;0.80;;;13.60;80.40;13.10;98334.00;;;;5016314;28;20190;-75
2022/05/22 05:30:10;;;;;;;0.60;0.60;;;13.60;80.60;13.20;98320.00;;;;5018270;28;20221;-74
2022/05/22 05:32:37;;;;;;;1.00;1.00;;;13.70;81.10;13.30;98330.00;;;;5017392;28;20255;-75
2022/05/22 05:35:09;;;;;;;0.73;0.73;;;13.80;81.00;13.40;98324.00;;;;5016570;28;20271;-75
2022/05/22 05:37:39;;;;;;;1.10;1.10;;;13.90;81.40;13.50;98327.00;;;;5016537;28;20233;-75
2022/05/22 05:40:09;;;;;;;0.93;0.93;;;14.00;81.70;13.70;98316.00;;;;4997456;28;20201;-75
2022/05/22 05:42:37;;;;;;;0.80;0.80;;;14.20;82.10;13.80;98319.00;;;;5015169;28;20193;-75
2022/05/22 05:45:06;;;;;;;1.10;1.10;;;14.30;82.00;13.80;98313.00;;;;5015411;28;20317;-75
2022/05/22 05:47:33;;;;;;;0.93;0.93;;;14.40;81.60;13.90;98313.00;;;;5015327;28;20202;-75
2022/05/22 05:49:59;;;;;;;0.90;0.90;;;14.40;81.80;14.00;98312.00;;;;4997897;28;20688;-75
2022/05/22 05:52:29;;;;;;;1.27;0.90;;;14.50;82.30;14.00;98315.00;;;;5015236;28;20232;-74
2022/05/22 05:54:55;;;;;;;0.97;0.97;;;14.60;83.00;14.10;98312.00;;;;5015114;28;20343;-74
2022/05/22 05:57:24;;;;;;;0.67;0.67;;;14.60;83.00;14.20;98320.00;;;;5015065;28;20243;-75
2022/05/22 05:59:54;;;;;;;0.50;0.50;;;14.70;83.40;14.30;98322.00;;;;5015033;28;20629;-75
2022/05/22 06:02:24;;;;;;;1.00;1.00;;;14.80;83.20;14.40;98295.00;;;;4997753;28;20201;-75
2022/05/22 06:04:51;;;;;;;2.53;1.47;;;14.90;82.60;14.40;98318.00;;;;5015007;28;20283;-75
2022/05/22 06:07:20;;;;;;;0.80;0.80;;;14.90;81.90;14.60;98311.00;;;;5014889;28;20186;-74
2022/05/22 06:09:47;;;;;;;1.13;0.90;;;15.10;82.10;14.70;98307.00;;;;5014815;28;20225;-74
2022/05/22 06:12:14;;;;;;;0.50;0.50;;;15.10;82.00;14.70;98305.00;;;;5014913;28;20205;-75
2022/05/22 06:14:41;;;;;;;0.83;0.83;;;15.20;81.60;14.70;98301.00;;;;5014871;28;20193;-75
2022/05/22 06:17:08;;;;;;;0.60;0.60;;;15.30;79.60;14.80;98299.00;;;;5014801;28;20309;-75
2022/05/22 06:19:55;;;;;;;0.60;0.60;;;15.40;79.20;15.00;98304.00;;;;5014761;28;20202;-75
2022/05/22 06:22:23;;;;;;;1.03;1.03;;;15.50;77.90;15.10;98296.00;;;;5014719;28;20236;-75
2022/05/22 06:24:52;;;;;;;0.83;0.83;;;15.50;78.30;15.10;98291.00;;;;5014731;28;20233;-75
2022/05/22 06:27:19;;;;;;;0.60;0.60;;;15.60;74.00;15.40;98302.00;;;;5014665;28;20312;-74
2022/05/22 06:29:46;;;;;;;0.60;0.60;;;15.70;71.30;15.30;98298.00;;;;5014653;28;20223;-75
2022/05/22 06:32:15;;;;;;;0.80;0.80;;;15.90;67.80;15.40;98308.00;;;;5014518;28;20194;-74
2022/05/22 06:34:47;;;;;;;1.67;1.57;;;16.00;67.80;15.50;98306.00;;;;5014558;28;20217;-75
2022/05/22 06:37:19;;;;;;;0.67;0.67;;;16.00;68.60;15.60;98308.00;;;;5013461;28;20632;-73
2022/05/22 06:39:51;;;;;;;0.60;0.60;;;16.20;66.90;15.80;98316.00;;;;5014376;28;20225;-75
2022/05/22 06:42:24;;;;;;;0.70;0.70;;;16.20;67.60;15.90;98318.00;;;;5014397;28;20228;-75
2022/05/22 06:45:01;;;;;;;0.67;0.67;;;16.40;64.20;15.90;98314.00;;;;5014389;28;20259;-75
2022/05/22 06:47:29;;;;;;;1.17;1.07;;;16.40;63.60;16.10;98289.00;;;;5016180;28;20220;-75
2022/05/22 06:49:59;;;;;;;0.63;0.63;;;16.50;62.50;16.20;98305.00;;;;5013808;28;20224;-75
2022/05/22 06:52:26;;;;;;;0.63;0.63;;;16.70;62.10;16.30;98308.00;;;;5013530;28;20230;-75
2022/05/22 06:54:52;;;;;;;0.50;0.50;;;16.80;61.00;16.30;98306.00;;;;5014305;28;20232;-75
2022/05/22 06:57:21;;;;;;;0.60;0.60;;;16.70;61.60;16.50;98307.00;;;;5014201;28;20248;-73
2022/05/22 06:59:52;;;;;;;0.50;0.50;;;17.00;60.60;16.60;98303.00;;;;4996924;28;20296;-75
2022/05/22 07:02:18;;;;;;;0.60;0.60;;;17.10;60.80;16.70;98307.00;;;;5014211;28;20189;-75
2022/05/22 07:04:45;;;;;;;0.70;0.70;;;17.20;60.00;16.90;98313.00;;;;5014142;28;20236;-75
2022/05/22 07:07:11;;;;;;;0.60;0.60;;;17.30;60.00;16.90;98314.00;;;;5014164;28;20687;-75
2022/05/22 07:09:39;;;;;;;0.60;0.60;;;17.40;58.70;17.10;98317.00;;;;5014029;28;20200;-76
2022/05/22 07:12:08;;;;;;;1.00;1.00;;;17.50;57.70;17.30;98314.00;;;;5014012;28;20323;-76
2022/05/22 07:14:36;;;;;;;0.50;0.50;;;17.60;55.70;17.20;98314.00;;;;5014095;28;20674;-78
2022/05/22 07:17:05;;;;;;;0.50;0.50;;;17.70;55.60;17.20;98314.00;;;;5013898;28;20235;-77
2022/05/22 07:19:34;;;;;;;0.73;0.73;;;17.70;55.90;17.30;98312.00;;;;5013894;28;20209;-77
2022/05/22 07:22:01;;;;;;;0.80;0.80;;;17.80;55.80;17.50;98299.00;;;;5014016;28;20201;-77
2022/05/22 07:24:28;;;;;;;0.70;0.70;;;17.90;56.60;17.50;98311.00;;;;5013978;28;20203;-74
2022/05/22 07:26:56;;;;;;;0.50;0.50;;;;;17.60;98316.00;;;;4996570;28;20209;-76
2022/05/22 07:29:22;;;;;;;1.80;1.07;;;18.10;56.00;17.70;98306.00;;;;5013910;28;20320;-76
2022/05/22 07:31:49;;;;;;;0.50;0.50;;;18.20;58.30;17.70;98296.00;;;;5013898;28;20288;-75
2022/05/22 07:34:16;;;;;;;0.50;0.50;;;18.20;56.40;17.80;98297.00;;;;5013612;28;20288;-74
2022/05/22 07:36:43;;;;;;;0.70;0.70;;;18.20;56.80;17.80;98294.00;;;;5013769;28;20239;-75
2022/05/22 07:39:11;;;;;;;0.70;0.70;;;18.20;56.30;17.90;98281.00;;;;5013776;28;20284;-74
2022/05/22 07:41:38;;;;;;;1.07;1.07;;;18.30;55.50;17.90;98280.00;;;;5013552;28;20657;-73
2022/05/22 07:44:05;;;;;;;0.40;0.40;;;18.40;55.50;18.10;98275.00;;;;5013632;28;20675;-73
2022/05/22 07:46:31;;;;;;;1.30;1.17;;;18.50;53.80;18.10;98288.00;;;;5013437;28;20217;-73
2022/05/22 07:48:59;;;;;;;0.57;0.57;;;18.50;54.80;18.10;98288.00;;;;5013624;28;20242;-73
2022/05/22 07:51:26;;;;;;;0.60;0.60;;;18.60;54.00;18.20;98273.00;;;;5013756;28;20671;-73
2022/05/22 07:53:52;;;;;;;0.50;0.50;;;18.60;54.00;18.30;98270.00;;;;5013595;28;20229;-73
2022/05/22 07:56:22;;;;;;;0.97;0.97;;;18.70;54.40;18.40;98266.00;;;;5013338;28;20312;-73
2022/05/22 07:58:51;;;;;;;0.40;0.40;;;18.80;52.70;18.40;98266.00;;;;5013491;28;20197;-74
2022/05/22 08:01:19;;;;;;;0.77;0.70;;;18.90;52.50;18.50;98261.00;;;;5013415;28;20212;-73
2022/05/22 08:03:46;;;;;;;0.70;0.70;;;18.90;52.30;18.50;98247.00;;;;5016474;28;20319;-73
2022/05/22 08:06:13;;;;;;;0.83;0.83;;;19.00;50.80;18.50;98254.00;;;;5016610;28;20205;-74
2022/05/22 08:08:40;;;;;;;0.90;0.87;;;19.00;51.10;18.60;98252.00;;;;5016635;28;20209;-74
2022/05/22 08:11:06;;;;;;;0.43;0.43;;;19.10;52.10;18.70;98254.00;;;;5016819;28;20732;-74
2022/05/22 08:13:33;;;;;;;1.70;1.03;;;19.20;51.20;18.80;98247.00;;;;5016669;28;20688;-74
2022/05/22 08:16:00;;;;;;;0.60;0.60;;;19.20;51.10;18.70;98254.00;;;;5015841;28;20352;-74
2022/05/22 08:18:26;;;;;;;0.77;0.77;;;19.20;50.70;18.80;98244.00;;;;5016657;28;20228;-74
2022/05/22 08:20:53;;;;;;;0.87;0.87;;;19.30;50.20;18.90;98242.00;;;;5016574;28;20221;-78
2022/05/22 08:23:23;;;;;;;0.60;0.60;;;19.30;50.20;19.00;98248.00;;;;5016595;28;20221;-75
2022/05/22 08:25:50;;;;;;;0.60;0.60;;;19.40;49.70;19.10;98240.00;;;;5016621;28;20236;-75
2022/05/22 08:28:17;;;;;;;4.07;1.50;;;19.50;49.60;19.10;98244.00;;;;5016410;28;20240;-74
2022/05/22 08:30:45;;;;;;;0.70;0.70;;;19.50;48.70;19.30;98238.00;;;;5016388;28;20697;-75
2022/05/22 08:33:12;;;;;;;0.70;0.70;;;19.60;48.30;19.30;98228.00;;;;5016481;28;20228;-76
2022/05/22 08:35:44;;;;;;;0.50;0.50;;;19.70;48.10;19.40;98228.00;;;;5016393;28;20626;-77
2022/05/22 08:38:11;;;;;;;0.50;0.50;;;;;19.50;98224.00;;;;5016374;28;20227;-75
2022/05/22 08:40:46;;;;;;;0.60;0.60;;;;;19.70;98227.00;;;;5016310;28;20190;-75
2022/05/22 08:43:16;;;;;;;0.50;0.50;;;;;19.90;98222.00;;;;5015568;28;20232;-76
2022/05/22 08:45:46;;;;;;;0.97;0.97;;;20.20;46.10;20.20;98210.00;;;;5016295;28;20200;-75
2022/05/22 08:48:27;;;;;;;0.50;0.50;;;20.40;44.10;20.20;98214.00;;;;5017370;28;20197;-76
2022/05/22 08:50:59;;;;;;;0.50;0.50;;;20.50;44.50;20.10;98210.00;;;;5020949;28;20228;-75
2022/05/22 08:53:35;;;;;;;0.50;0.50;;;20.50;43.30;20.10;98210.00;;;;5016436;28;20229;-74
2022/05/22 08:59:02;;;;;;;0.70;0.70;;;20.60;43.50;20.40;98212.00;;;;5016309;28;20367;-75
2022/05/22 09:01:45;;;;;;;0.40;0.40;;;20.70;41.70;20.40;98210.00;;;;5016136;28;20199;-73
2022/05/22 09:04:34;;;;;;;0.70;0.70;;;20.90;42.30;20.50;98205.00;;;;5016133;28;20197;-75
2022/05/22 09:07:12;;;;;;;0.50;0.50;;;;;20.80;98209.00;;;;5016039;28;20198;-75
2022/05/22 09:09:41;;;;;;;0.40;0.40;;;;;20.80;98196.00;;;;5015956;28;20628;-75
2022/05/22 09:12:52;;;;;;;0.50;0.50;;;21.20;39.20;20.80;98193.00;;;;5015877;28;20215;-75
2022/05/22 09:15:28;;;;;;;0.57;0.57;;;21.30;39.40;21.00;98199.00;;;;5009730;28;20220;-74
2022/05/22 09:18:01;;;;;;;0.60;0.60;;;21.40;40.30;21.20;98193.00;;;;5015731;28;20286;-75
2022/05/22 09:20:41;;;;;;;0.60;0.60;;;;;21.20;98187.00;;;;4998471;28;20204;-74
2022/05/22 09:23:58;;;;;;;0.50;0.50;;;21.50;38.40;21.40;98195.00;;;;4998511;28;20275;-75
2022/05/22 09:26:43;;;;;;;0.50;0.50;;;;;21.50;98187.00;;;;5000753;28;20557;-75
2022/05/22 09:29:48;;;;;;;0.50;0.50;;;21.80;35.60;21.30;98187.00;;;;5015693;28;20231;-75
2022/05/22 09:32:33;;;;;;;0.50;0.50;;;21.60;36.40;21.20;98187.00;;;;4998250;28;20200;-75
2022/05/22 09:35:16;;;;;;;0.50;0.50;;;21.60;38.20;21.30;98186.00;;;;5015539;28;20228;-75
2022/05/22 09:37:55;;;;;;;0.40;0.40;;;;;21.40;98183.00;;;;5015472;28;20229;-75
2022/05/22 09:40:34;;;;;;;0.40;0.40;;;21.80;39.00;21.70;98179.00;;;;5015464;28;20224;-74
2022/05/22 09:43:36;;;;;;;0.75;0.75;;;22.10;39.60;22.00;98175.00;;;;5015472;28;20201;-74
2022/05/22 09:46:32;;;;;;;0.50;0.50;;;22.30;38.60;22.30;98186.00;;;;5010370;28;20687;-75
2022/05/22 09:49:19;;;;;;;0.60;0.60;;;22.50;37.60;22.50;98172.00;;;;4998419;28;20296;-75
2022/05/22 09:51:57;;;;;;;0.70;0.70;;;22.70;36.50;22.50;98177.00;;;;4998037;28;20229;-75
2022/05/22 09:55:02;;;;;;;0.40;0.40;;;22.70;36.00;22.70;98179.00;;;;5015401;28;20205;-76
2022/05/22 09:57:57;;;;;;;0.47;0.47;;;23.00;36.40;22.50;98169.00;;;;4999946;28;20243;-74
2022/05/22 10:00:34;;;;;;;0.50;0.50;;;22.80;34.80;22.50;98165.00;;;;5015291;28;20202;-75
2022/05/22 10:03:09;;;;;;;0.57;0.57;;;22.80;34.10;22.50;98163.00;;;;5015259;28;20265;-75
2022/05/22 10:05:57;;;;;;;0.50;0.50;;;22.90;35.50;22.50;98165.00;;;;5015238;28;20292;-75
2022/05/22 10:08:45;;;;;;;0.40;0.40;;;22.90;35.20;22.60;98166.00;;;;5015012;28;20307;-76
2022/05/22 10:11:21;;;;;;;0.52;0.52;;;22.90;35.50;22.80;98150.00;;;;5014319;28;20395;-76
2022/05/22 10:14:21;;;;;;;0.40;0.40;;;23.10;35.50;23.00;98153.00;;;;5015036;28;20380;-73
2022/05/22 10:17:13;;;;;;;0.82;0.82;;;23.30;35.30;23.10;98149.00;;;;5014906;28;20225;-75
2022/05/22 10:19:50;;;;;;;2.38;1.23;;;23.40;35.70;23.30;98156.00;;;;5014858;28;20253;-75
2022/05/22 10:22:31;;;;;;;0.73;0.73;;;23.50;35.60;23.50;98161.00;;;;5014990;28;20201;-75
2022/05/22 10:25:16;;;;;;;0.50;0.50;;;23.70;36.30;23.70;98165.00;;;;5014553;28;20221;-74
2022/05/22 10:27:56;;;;;;;0.60;0.60;;;23.90;36.10;23.60;98161.00;;;;5014912;28;20197;-73
2022/05/22 10:30:30;;;;;;;0.35;0.35;;;;;23.50;98158.00;;;;5015098;28;20252;-74
2022/05/22 10:33:06;;;;;;;0.70;0.70;;;23.90;34.80;23.60;98157.00;;;;4998655;28;20276;-74
2022/05/22 10:35:46;;;;;;;0.40;0.40;;;23.90;33.70;23.60;98160.00;;;;5016028;28;20247;-75
2022/05/22 10:38:21;;;;;;;0.47;0.47;;;23.90;33.90;23.50;98149.00;;;;5016331;28;20228;-75
2022/05/22 10:43:52;;;;;;;0.68;0.68;;;24.00;33.60;23.60;98147.00;;;;4979504;28;20589;-74
2022/05/22 10:46:20;;;;;;;0.60;0.60;;;23.90;34.30;23.90;98137.00;;;;5014524;28;20209;-74
2022/05/22 10:48:53;;;;;;;0.68;0.57;;;24.10;35.20;24.10;98131.00;;;;5014619;28;20220;-74
2022/05/22 10:51:26;;;;;;;0.40;0.40;;;24.30;35.10;24.20;98120.00;;;;5014451;28;20208;-74
2022/05/22 10:53:56;;;;;;;0.50;0.50;;;24.50;35.10;24.50;98115.00;;;;5014562;28;20255;-75
2022/05/22 10:56:28;;;;;;;0.50;0.50;;;24.70;33.50;24.60;98107.00;;;;5014404;28;20672;-75
2022/05/22 10:58:57;;;;;;;0.43;0.43;;;24.80;33.70;24.70;98108.00;;;;5014254;28;20338;-76
2022/05/22 11:01:27;;;;;;;0.40;0.40;;;;;24.90;98101.00;;;;4997213;28;20309;-75
2022/05/22 11:04:07;;;;;;;0.73;0.73;;;25.20;32.80;25.10;98101.00;;;;5014235;28;20296;-74
2022/05/22 11:06:51;;;;;;;0.70;0.70;;;25.40;32.00;25.20;98097.00;;;;5014217;28;20200;-75
2022/05/22 11:09:25;;;;;;;0.70;0.70;;;25.40;30.20;25.30;98091.00;;;;5014118;28;20217;-75
2022/05/22 11:11:51;;;;;;;0.60;0.60;;;25.60;31.20;25.80;98095.00;;;;5014141;28;20212;-75
2022/05/22 11:14:22;;;;;;;0.45;0.45;;;25.90;31.00;25.90;98088.00;;;;5013987;28;20198;-75
2022/05/22 11:16:48;;;;;;;0.50;0.50;;;26.10;31.10;26.10;98091.00;;;;5014126;28;20307;-74
2022/05/22 11:19:24;;;;;;;0.50;0.50;;;26.30;29.80;26.30;98085.00;;;;5013154;28;20660;-75
2022/05/22 11:22:19;;;;;;;0.82;0.82;;;26.40;28.80;26.50;98053.00;;;;5014005;28;20201;-74
2022/05/22 11:25:01;;;;;;;0.43;0.43;;;26.60;29.50;26.70;98082.00;;;;5013930;28;20208;-75
2022/05/22 11:27:49;;;;;;;0.68;0.68;;;26.80;31.50;26.80;98080.00;;;;4996543;28;20537;-74